• Join FlightAware (Why Join?)
  • Login
  • US Flag 
10:19AM EST


 

Airport Tracker/Info


-or-


 

Live Flight TrackerFlight Track Log ✈ JAL894 ✈ 06-May-2012 ✈ ZSPD / PVG - RJBB / KIX

Flight Track Log - Related Links

Times and Time Zones

All times are in EDT time to prevent confusion due to time zone crossing. See the JAL894 flight status page for this flight to view local times or setup timezone preferences in your user account.

Time Position Orientation Groundspeed Altitude Reporting Facility
EDT Latitude Longitude Course Direction KTS MPH feet Rate Location/Type
01:37AM 31.1644 121.8628 70° East  Level Estimated
01:38AM 31.2049 121.9949 70° East  Level Estimated
01:39AM 31.2453 122.1272 70° East  Level Estimated
01:40AM 31.2855 122.2596 70° East  Level Estimated
01:41AM 31.3256 122.3921 71° East  Level Estimated
01:42AM 31.3656 122.5247 71° East  Level Estimated
01:43AM 31.4054 122.6574 71° East  Level Estimated
01:44AM 31.4451 122.7902 71° East  Level Estimated
01:45AM 31.4846 122.9231 71° East  Level Estimated
01:46AM 31.5240 123.0562 71° East  Level Estimated
01:47AM 31.5633 123.1893 71° East  Level Estimated
01:48AM 31.6024 123.3226 71° East  Level Estimated
01:49AM 31.6414 123.4560 71° East  Level Estimated
01:50AM 31.6802 123.5895 71° East  Level Estimated
01:51AM 31.7190 123.7231 71° East  Level Estimated
01:52AM 31.7575 123.8568 71° East  Level Estimated
01:53AM 31.7959 123.9907 71° East  Level Estimated
01:54AM 31.8342 124.1246 71° East  Level Estimated
01:55AM 31.8724 124.2587 72° East  Level Estimated
01:56AM 31.9104 124.3928 72° East  Level Estimated
01:57AM 31.9483 124.5271 72° East  Level Estimated
01:58AM 31.9860 124.6615 72° East  Level Estimated
01:59AM 32.0236 124.7960 72° East  Level Estimated
02:00AM 32.0610 124.9306 72° East  Level Estimated
02:01AM 32.0983 125.0653 72° East  Level Estimated
02:02AM 32.1355 125.2001 72° East  Level Estimated
02:03AM 32.1725 125.3351 72° East  Level Estimated
02:04AM 32.2094 125.4701 72° East  Level Estimated
02:05AM 32.2461 125.6053 72° East  Level Estimated
02:06AM 32.2827 125.7406 72° East  Level Estimated
02:07AM 32.3191 125.8759 72° East  Level Estimated
02:08AM 32.3554 126.0114 72° East  Level Estimated
02:09AM 32.3916 126.1470 73° East  Level Estimated
02:10AM 32.4276 126.2827 73° East  Level Estimated
02:11AM 32.4635 126.4185 73° East  Level Estimated
02:12AM 32.4992 126.5544 73° East  Level Estimated
02:13AM 32.5348 126.6905 73° East  Level Estimated
02:14AM 32.5702 126.8266 73° East  Level Estimated
02:15AM 32.6041 126.9575 73° East  Level Estimated
02:16AM 32.6378 127.0885 73° East  Level Estimated
02:17AM 32.6715 127.2196 73° East  Level Estimated
02:18AM 32.7049 127.3508 73° East  Level Estimated
02:19AM 32.7383 127.4820 73° East  Level Estimated
02:20AM 32.7715 127.6134 73° East  Level Estimated
02:21AM 32.8046 127.7449 73° East  Level Estimated
02:22AM 32.8372 127.8752 73° East  Level Estimated
02:23AM 32.8697 128.0056 74° East  Level Estimated
02:24AM 32.9020 128.1361 74° East  Level Estimated
02:25AM 32.9342 128.2667 74° East  Level Estimated
02:26AM 32.9663 128.3974 74° East  Level Estimated
02:27AM 32.9983 128.5282 74° East  Level Estimated
02:28AM 33.0301 128.6590 74° East  Level Estimated
02:29AM 33.0617 128.7900 74° East  Level Estimated
02:30AM 33.0933 128.9211 74° East  Level Estimated
02:31AM 33.1247 129.0522 74° East  Level Estimated
02:32AM 33.1559 129.1835 74° East  Level Estimated
02:33AM 33.1870 129.3148 74° East  Level Estimated
02:34AM 33.2180 129.4462 74° East  Level Estimated
02:35AM 33.2489 129.5778 74° East  Level Estimated
02:36AM 33.2790 129.7069 74° East  Level Estimated
02:37AM 33.3090 129.8361 75° East  Level Estimated
02:38AM 33.3388 129.9654 75° East  Level Estimated
02:39AM 33.3685 130.0948 75° East  Level Estimated
02:40AM 33.3981 130.2242 75° East  Level Estimated
02:41AM 33.4276 130.3538 75° East  Level Estimated
02:42AM 33.4566 130.4822 75° East  Level Estimated
02:43AM 33.4855 130.6107 75° East  Level Estimated
02:44AM 33.5143 130.7393 75° East  Level Estimated
02:45AM 33.5429 130.8680 75° East  Level Estimated
02:46AM 33.5714 130.9968 75° East  Level Estimated
02:47AM 33.5998 131.1256 75° East  Level Estimated
02:48AM 33.6281 131.2545 75° East  Level Estimated
02:49AM 33.6562 131.3836 75° East  Level Estimated
02:50AM 33.6841 131.5127 75° East  Level Estimated
02:51AM 33.7120 131.6418 76° East  Level Estimated
02:52AM 33.7397 131.7711 76° East  Level Estimated
02:53AM 33.7673 131.9005 76° East  Level Estimated
02:54AM 33.7947 132.0299 76° East  Level Estimated
02:55AM 33.8220 132.1594 76° East  Level Estimated
02:56AM 33.8486 132.2866 76° East  Level Estimated
02:57AM 33.8752 132.4139 76° East  Level Estimated
02:58AM 33.9016 132.5412 76° East  Level Estimated
02:59AM 33.9278 132.6687 76° East  Level Estimated
03:00AM 33.9540 132.7962 76° East  Level Estimated
03:01AM 33.9800 132.9238 76° East  Level Estimated
03:02AM 34.0059 133.0515 76° East  Level Estimated
03:03AM 34.0316 133.1792 76° East  Level Estimated
03:04AM 34.0572 133.3070 76° East  Level Estimated
03:05AM 34.0827 133.4349 77° East  Level Estimated
03:06AM 34.1080 133.5629 77° East  Level Estimated
03:07AM 34.1333 133.6910 77° East  Level Estimated
03:08AM 34.1583 133.8191 77° East  Level Estimated
03:09AM 34.1833 133.9473 77° East  Level Estimated
03:10AM 34.2081 134.0756 77° East  Level Estimated
03:11AM 34.2328 134.2039 77° East  Level Estimated
03:12AM 34.2573 134.3324 77° East  Level Estimated
03:13AM 34.2829 134.4671 77° East  Level Estimated
03:14AM 34.3083 134.6019 77° East  Level Estimated
03:15AM 34.3336 134.7368 77° East  Level Estimated
03:16AM 34.3588 134.8718 77° East  Level Estimated
03:17AM 34.3829 135.0019 77° East  Level Estimated
03:18AM 34.4068 135.1320 77° East  Level Estimated
03:19AM 34.4306 135.2621 258° West  Level Estimated
03:20AM 34.4068 135.1320 77° East  Level Estimated
03:21AM 34.4306 135.2621 258° West  Level Estimated
03:22AM 34.4068 135.1320 77° East  Level Estimated
03:23AM 34.4306 135.2621 258° West  Level Estimated
03:24AM 34.4068 135.1320 77° East  Level Estimated
03:25AM 34.4306 135.2621 258° West  Level Estimated
03:26AM 34.4068 135.1320 77° East  Level Estimated
03:27AM 34.4308 135.2634 258° West  Level Estimated
03:28AM 34.4068 135.1320 77° East  Level Estimated
03:29AM 34.4308 135.2634 258° West  Level Estimated
03:30AM 34.4068 135.1320 77° East  Level Estimated
03:31AM 34.4308 135.2634 258° West  Level Estimated
03:32AM 34.4068 135.1320 258° West  Level Estimated